sensor_id;sensor_type;location;lat;lon;timestamp;P1;durP1;ratioP1;P2;durP2;ratioP2
16354;SDS011;8287;51.644;8.494;2024-02-04T00:01:57;17.50;;;12.88;;
16354;SDS011;8287;51.644;8.494;2024-02-04T00:04:25;21.85;;;14.15;;
16354;SDS011;8287;51.644;8.494;2024-02-04T00:06:52;16.23;;;13.13;;
16354;SDS011;8287;51.644;8.494;2024-02-04T00:09:19;21.05;;;14.00;;
16354;SDS011;8287;51.644;8.494;2024-02-04T00:11:45;17.70;;;14.13;;
16354;SDS011;8287;51.644;8.494;2024-02-04T00:14:12;20.00;;;13.15;;
16354;SDS011;8287;51.644;8.494;2024-02-04T00:16:38;17.58;;;13.10;;
16354;SDS011;8287;51.644;8.494;2024-02-04T00:19:05;17.77;;;13.45;;
16354;SDS011;8287;51.644;8.494;2024-02-04T00:21:35;15.55;;;13.05;;
16354;SDS011;8287;51.644;8.494;2024-02-04T00:24:01;20.42;;;13.65;;
16354;SDS011;8287;51.644;8.494;2024-02-04T00:26:28;20.58;;;13.45;;
16354;SDS011;8287;51.644;8.494;2024-02-04T00:28:55;15.93;;;12.75;;
16354;SDS011;8287;51.644;8.494;2024-02-04T00:31:22;23.23;;;14.93;;
16354;SDS011;8287;51.644;8.494;2024-02-04T00:33:48;20.02;;;13.77;;
16354;SDS011;8287;51.644;8.494;2024-02-04T00:36:15;22.35;;;15.35;;
16354;SDS011;8287;51.644;8.494;2024-02-04T00:38:44;22.98;;;16.95;;
16354;SDS011;8287;51.644;8.494;2024-02-04T00:41:10;20.80;;;15.32;;
16354;SDS011;8287;51.644;8.494;2024-02-04T00:43:37;20.00;;;15.57;;
16354;SDS011;8287;51.644;8.494;2024-02-04T00:46:03;21.65;;;16.13;;
16354;SDS011;8287;51.644;8.494;2024-02-04T00:48:30;15.80;;;12.85;;
16354;SDS011;8287;51.644;8.494;2024-02-04T00:50:57;14.45;;;10.73;;
16354;SDS011;8287;51.644;8.494;2024-02-04T00:53:24;11.88;;;9.65;;
16354;SDS011;8287;51.644;8.494;2024-02-04T00:55:54;14.57;;;11.05;;
16354;SDS011;8287;51.644;8.494;2024-02-04T00:58:21;13.30;;;10.68;;
16354;SDS011;8287;51.644;8.494;2024-02-04T01:00:47;13.45;;;10.50;;
16354;SDS011;8287;51.644;8.494;2024-02-04T01:03:14;11.90;;;9.80;;
16354;SDS011;8287;51.644;8.494;2024-02-04T01:05:41;14.23;;;10.73;;
16354;SDS011;8287;51.644;8.494;2024-02-04T01:08:08;13.50;;;10.55;;
16354;SDS011;8287;51.644;8.494;2024-02-04T01:10:34;15.70;;;11.75;;
16354;SDS011;8287;51.644;8.494;2024-02-04T01:13:02;14.25;;;9.80;;
16354;SDS011;8287;51.644;8.494;2024-02-04T01:15:29;11.63;;;9.60;;
16354;SDS011;8287;51.644;8.494;2024-02-04T01:17:56;14.07;;;10.07;;
16354;SDS011;8287;51.644;8.494;2024-02-04T01:20:22;13.52;;;11.25;;
16354;SDS011;8287;51.644;8.494;2024-02-04T01:22:49;15.30;;;10.43;;
16354;SDS011;8287;51.644;8.494;2024-02-04T01:25:15;12.57;;;9.32;;
16354;SDS011;8287;51.644;8.494;2024-02-04T01:27:42;15.13;;;10.38;;
16354;SDS011;8287;51.644;8.494;2024-02-04T01:30:10;15.23;;;11.07;;
16354;SDS011;8287;51.644;8.494;2024-02-04T01:32:37;12.38;;;9.23;;
16354;SDS011;8287;51.644;8.494;2024-02-04T01:35:04;12.30;;;10.55;;
16354;SDS011;8287;51.644;8.494;2024-02-04T01:37:31;12.02;;;8.88;;
16354;SDS011;8287;51.644;8.494;2024-02-04T01:39:58;11.43;;;9.10;;
16354;SDS011;8287;51.644;8.494;2024-02-04T01:42:24;11.40;;;8.45;;
16354;SDS011;8287;51.644;8.494;2024-02-04T01:44:51;10.70;;;8.80;;
16354;SDS011;8287;51.644;8.494;2024-02-04T01:47:19;14.70;;;8.10;;
16354;SDS011;8287;51.644;8.494;2024-02-04T01:49:46;10.55;;;7.95;;
16354;SDS011;8287;51.644;8.494;2024-02-04T01:52:13;11.68;;;7.80;;
16354;SDS011;8287;51.644;8.494;2024-02-04T01:54:39;9.63;;;7.43;;
16354;SDS011;8287;51.644;8.494;2024-02-04T01:57:07;7.40;;;6.35;;
16354;SDS011;8287;51.644;8.494;2024-02-04T01:59:36;8.48;;;7.55;;
16354;SDS011;8287;51.644;8.494;2024-02-04T02:02:05;6.68;;;5.85;;
16354;SDS011;8287;51.644;8.494;2024-02-04T02:04:34;10.38;;;6.93;;
16354;SDS011;8287;51.644;8.494;2024-02-04T02:07:00;7.68;;;6.28;;
16354;SDS011;8287;51.644;8.494;2024-02-04T02:09:28;8.23;;;6.50;;
16354;SDS011;8287;51.644;8.494;2024-02-04T02:11:57;7.85;;;5.93;;
16354;SDS011;8287;51.644;8.494;2024-02-04T02:14:28;9.18;;;7.00;;
16354;SDS011;8287;51.644;8.494;2024-02-04T02:16:59;7.45;;;6.38;;
16354;SDS011;8287;51.644;8.494;2024-02-04T02:19:32;7.35;;;5.57;;
16354;SDS011;8287;51.644;8.494;2024-02-04T02:22:11;5.60;;;4.97;;
16354;SDS011;8287;51.644;8.494;2024-02-04T02:24:50;7.53;;;4.93;;
16354;SDS011;8287;51.644;8.494;2024-02-04T02:27:17;5.38;;;4.80;;
16354;SDS011;8287;51.644;8.494;2024-02-04T02:29:44;4.97;;;4.45;;
16354;SDS011;8287;51.644;8.494;2024-02-04T02:32:10;4.55;;;3.92;;
16354;SDS011;8287;51.644;8.494;2024-02-04T02:34:37;4.45;;;4.05;;
16354;SDS011;8287;51.644;8.494;2024-02-04T02:37:06;4.60;;;4.07;;
16354;SDS011;8287;51.644;8.494;2024-02-04T02:39:40;4.78;;;4.38;;
16354;SDS011;8287;51.644;8.494;2024-02-04T02:42:13;4.45;;;4.05;;
16354;SDS011;8287;51.644;8.494;2024-02-04T02:44:41;3.85;;;3.50;;
16354;SDS011;8287;51.644;8.494;2024-02-04T02:47:10;3.70;;;3.40;;
16354;SDS011;8287;51.644;8.494;2024-02-04T02:49:37;3.45;;;3.13;;
16354;SDS011;8287;51.644;8.494;2024-02-04T02:52:04;3.95;;;3.10;;
16354;SDS011;8287;51.644;8.494;2024-02-04T02:54:31;3.05;;;2.72;;
16354;SDS011;8287;51.644;8.494;2024-02-04T02:56:57;2.90;;;2.50;;
16354;SDS011;8287;51.644;8.494;2024-02-04T02:59:25;3.03;;;2.72;;
16354;SDS011;8287;51.644;8.494;2024-02-04T03:01:52;2.53;;;2.13;;
16354;SDS011;8287;51.644;8.494;2024-02-04T03:04:18;3.28;;;2.97;;
16354;SDS011;8287;51.644;8.494;2024-02-04T03:06:45;2.47;;;2.28;;
16354;SDS011;8287;51.644;8.494;2024-02-04T03:09:11;3.42;;;2.50;;
16354;SDS011;8287;51.644;8.494;2024-02-04T03:11:38;1.77;;;1.67;;
16354;SDS011;8287;51.644;8.494;2024-02-04T03:14:04;2.85;;;1.67;;
16354;SDS011;8287;51.644;8.494;2024-02-04T03:16:32;1.65;;;1.55;;
16354;SDS011;8287;51.644;8.494;2024-02-04T03:18:59;1.67;;;1.58;;
16354;SDS011;8287;51.644;8.494;2024-02-04T03:21:25;1.90;;;1.70;;
16354;SDS011;8287;51.644;8.494;2024-02-04T03:23:52;3.88;;;1.98;;
16354;SDS011;8287;51.644;8.494;2024-02-04T03:26:18;1.80;;;1.70;;
16354;SDS011;8287;51.644;8.494;2024-02-04T03:28:45;2.65;;;2.10;;
16354;SDS011;8287;51.644;8.494;2024-02-04T03:31:12;2.80;;;2.60;;
16354;SDS011;8287;51.644;8.494;2024-02-04T03:33:46;2.47;;;2.28;;
16354;SDS011;8287;51.644;8.494;2024-02-04T03:36:15;5.30;;;2.53;;
16354;SDS011;8287;51.644;8.494;2024-02-04T03:38:42;3.60;;;3.20;;
16354;SDS011;8287;51.644;8.494;2024-02-04T03:41:08;3.80;;;3.50;;
16354;SDS011;8287;51.644;8.494;2024-02-04T03:43:35;4.80;;;4.30;;
16354;SDS011;8287;51.644;8.494;2024-02-04T03:46:02;4.47;;;4.07;;
16354;SDS011;8287;51.644;8.494;2024-02-04T03:48:29;7.68;;;3.97;;
16354;SDS011;8287;51.644;8.494;2024-02-04T03:50:57;4.88;;;4.15;;
16354;SDS011;8287;51.644;8.494;2024-02-04T03:53:23;5.25;;;4.47;;
16354;SDS011;8287;51.644;8.494;2024-02-04T03:55:50;4.70;;;4.15;;
16354;SDS011;8287;51.644;8.494;2024-02-04T03:58:17;5.75;;;5.25;;
16354;SDS011;8287;51.644;8.494;2024-02-04T04:00:43;6.70;;;5.25;;
16354;SDS011;8287;51.644;8.494;2024-02-04T04:03:10;5.60;;;5.10;;
16354;SDS011;8287;51.644;8.494;2024-02-04T04:05:36;5.97;;;4.75;;
16354;SDS011;8287;51.644;8.494;2024-02-04T04:08:04;6.97;;;6.10;;
16354;SDS011;8287;51.644;8.494;2024-02-04T04:10:31;5.43;;;4.93;;
16354;SDS011;8287;51.644;8.494;2024-02-04T04:12:58;6.25;;;5.65;;
16354;SDS011;8287;51.644;8.494;2024-02-04T04:15:24;5.47;;;4.97;;
16354;SDS011;8287;51.644;8.494;2024-02-04T04:17:51;6.38;;;5.53;;
16354;SDS011;8287;51.644;8.494;2024-02-04T04:20:18;6.38;;;5.78;;
16354;SDS011;8287;51.644;8.494;2024-02-04T04:22:44;6.90;;;5.32;;
16354;SDS011;8287;51.644;8.494;2024-02-04T04:25:12;6.35;;;5.75;;
16354;SDS011;8287;51.644;8.494;2024-02-04T04:27:40;6.75;;;6.15;;
16354;SDS011;8287;51.644;8.494;2024-02-04T04:30:07;6.32;;;5.72;;
16354;SDS011;8287;51.644;8.494;2024-02-04T04:32:34;7.35;;;6.38;;
16354;SDS011;8287;51.644;8.494;2024-02-04T04:35:00;7.50;;;6.70;;
16354;SDS011;8287;51.644;8.494;2024-02-04T04:37:27;8.75;;;7.38;;
16354;SDS011;8287;51.644;8.494;2024-02-04T04:39:54;8.27;;;7.07;;
16354;SDS011;8287;51.644;8.494;2024-02-04T04:42:21;10.50;;;7.90;;
16354;SDS011;8287;51.644;8.494;2024-02-04T04:44:48;9.60;;;8.68;;
16354;SDS011;8287;51.644;8.494;2024-02-04T04:47:15;11.80;;;8.90;;
16354;SDS011;8287;51.644;8.494;2024-02-04T04:49:41;10.00;;;9.00;;
16354;SDS011;8287;51.644;8.494;2024-02-04T04:52:08;10.38;;;9.27;;
16354;SDS011;8287;51.644;8.494;2024-02-04T04:54:34;11.57;;;9.95;;
16354;SDS011;8287;51.644;8.494;2024-02-04T04:57:01;11.27;;;9.75;;
16354;SDS011;8287;51.644;8.494;2024-02-04T04:59:29;10.45;;;9.07;;
16354;SDS011;8287;51.644;8.494;2024-02-04T05:01:55;13.88;;;10.07;;
16354;SDS011;8287;51.644;8.494;2024-02-04T05:04:22;11.15;;;8.55;;
16354;SDS011;8287;51.644;8.494;2024-02-04T05:06:50;12.95;;;8.88;;
16354;SDS011;8287;51.644;8.494;2024-02-04T05:09:17;9.23;;;8.27;;
16354;SDS011;8287;51.644;8.494;2024-02-04T05:11:43;13.68;;;9.13;;
16354;SDS011;8287;51.644;8.494;2024-02-04T05:14:10;10.27;;;8.15;;
16354;SDS011;8287;51.644;8.494;2024-02-04T05:16:38;15.38;;;10.05;;
16354;SDS011;8287;51.644;8.494;2024-02-04T05:19:04;11.52;;;8.93;;
16354;SDS011;8287;51.644;8.494;2024-02-04T05:21:31;11.95;;;9.27;;
16354;SDS011;8287;51.644;8.494;2024-02-04T05:23:57;12.85;;;8.30;;
16354;SDS011;8287;51.644;8.494;2024-02-04T05:26:24;10.48;;;8.95;;
16354;SDS011;8287;51.644;8.494;2024-02-04T05:28:51;10.82;;;8.57;;
16354;SDS011;8287;51.644;8.494;2024-02-04T05:31:17;10.93;;;9.30;;
16354;SDS011;8287;51.644;8.494;2024-02-04T05:33:45;10.65;;;8.98;;
16354;SDS011;8287;51.644;8.494;2024-02-04T05:36:12;10.45;;;9.05;;
16354;SDS011;8287;51.644;8.494;2024-02-04T05:38:38;14.80;;;9.40;;
16354;SDS011;8287;51.644;8.494;2024-02-04T05:41:05;12.07;;;8.63;;
16354;SDS011;8287;51.644;8.494;2024-02-04T05:43:31;13.63;;;10.05;;
16354;SDS011;8287;51.644;8.494;2024-02-04T05:45:58;14.43;;;9.60;;
16354;SDS011;8287;51.644;8.494;2024-02-04T05:48:24;14.88;;;10.68;;
16354;SDS011;8287;51.644;8.494;2024-02-04T05:50:52;14.20;;;10.23;;
16354;SDS011;8287;51.644;8.494;2024-02-04T05:53:19;14.77;;;11.75;;
16354;SDS011;8287;51.644;8.494;2024-02-04T05:55:46;17.35;;;12.63;;
16354;SDS011;8287;51.644;8.494;2024-02-04T05:58:12;21.42;;;13.02;;
16354;SDS011;8287;51.644;8.494;2024-02-04T06:00:39;19.50;;;12.15;;
16354;SDS011;8287;51.644;8.494;2024-02-04T06:03:06;21.00;;;14.00;;
16354;SDS011;8287;51.644;8.494;2024-02-04T06:05:32;18.42;;;12.82;;
16354;SDS011;8287;51.644;8.494;2024-02-04T06:08:00;15.48;;;12.27;;
16354;SDS011;8287;51.644;8.494;2024-02-04T06:10:27;15.52;;;12.50;;
16354;SDS011;8287;51.644;8.494;2024-02-04T06:12:53;19.35;;;13.60;;
16354;SDS011;8287;51.644;8.494;2024-02-04T06:15:20;19.02;;;13.48;;
16354;SDS011;8287;51.644;8.494;2024-02-04T06:17:46;20.02;;;13.63;;
16354;SDS011;8287;51.644;8.494;2024-02-04T06:20:13;19.27;;;14.05;;
16354;SDS011;8287;51.644;8.494;2024-02-04T06:22:40;19.38;;;15.48;;
16354;SDS011;8287;51.644;8.494;2024-02-04T06:25:08;24.08;;;14.90;;
16354;SDS011;8287;51.644;8.494;2024-02-04T06:27:35;21.27;;;16.75;;
16354;SDS011;8287;51.644;8.494;2024-02-04T06:30:02;23.10;;;16.08;;
16354;SDS011;8287;51.644;8.494;2024-02-04T06:32:28;25.60;;;14.43;;
16354;SDS011;8287;51.644;8.494;2024-02-04T06:34:55;22.77;;;15.25;;
16354;SDS011;8287;51.644;8.494;2024-02-04T06:37:23;17.00;;;14.32;;
16354;SDS011;8287;51.644;8.494;2024-02-04T06:39:50;21.52;;;16.73;;
16354;SDS011;8287;51.644;8.494;2024-02-04T06:42:19;23.45;;;14.35;;
16354;SDS011;8287;51.644;8.494;2024-02-04T06:44:45;19.77;;;15.40;;
16354;SDS011;8287;51.644;8.494;2024-02-04T06:47:12;18.90;;;13.88;;
16354;SDS011;8287;51.644;8.494;2024-02-04T06:49:39;18.13;;;14.27;;
16354;SDS011;8287;51.644;8.494;2024-02-04T06:52:05;19.85;;;13.73;;
16354;SDS011;8287;51.644;8.494;2024-02-04T06:54:32;22.08;;;15.43;;
16354;SDS011;8287;51.644;8.494;2024-02-04T06:56:58;21.33;;;13.73;;
16354;SDS011;8287;51.644;8.494;2024-02-04T06:59:26;18.63;;;13.13;;
16354;SDS011;8287;51.644;8.494;2024-02-04T07:01:53;18.85;;;13.23;;
16354;SDS011;8287;51.644;8.494;2024-02-04T07:04:19;20.15;;;15.15;;
16354;SDS011;8287;51.644;8.494;2024-02-04T07:06:49;20.55;;;13.73;;
16354;SDS011;8287;51.644;8.494;2024-02-04T07:09:15;18.80;;;14.02;;
16354;SDS011;8287;51.644;8.494;2024-02-04T07:11:42;17.10;;;13.15;;
16354;SDS011;8287;51.644;8.494;2024-02-04T07:14:09;18.10;;;13.32;;
16354;SDS011;8287;51.644;8.494;2024-02-04T07:16:36;19.13;;;13.48;;
16354;SDS011;8287;51.644;8.494;2024-02-04T07:19:04;20.67;;;14.05;;
16354;SDS011;8287;51.644;8.494;2024-02-04T07:21:30;21.65;;;13.30;;
16354;SDS011;8287;51.644;8.494;2024-02-04T07:23:57;18.95;;;14.82;;
16354;SDS011;8287;51.644;8.494;2024-02-04T07:26:23;19.92;;;14.00;;
16354;SDS011;8287;51.644;8.494;2024-02-04T07:28:50;17.80;;;14.18;;
16354;SDS011;8287;51.644;8.494;2024-02-04T07:31:17;17.70;;;14.02;;
16354;SDS011;8287;51.644;8.494;2024-02-04T07:33:45;19.50;;;15.38;;
16354;SDS011;8287;51.644;8.494;2024-02-04T07:36:11;20.65;;;15.60;;
16354;SDS011;8287;51.644;8.494;2024-02-04T07:38:38;20.77;;;16.52;;
16354;SDS011;8287;51.644;8.494;2024-02-04T07:41:05;23.80;;;16.00;;
16354;SDS011;8287;51.644;8.494;2024-02-04T07:43:31;20.98;;;15.40;;
16354;SDS011;8287;51.644;8.494;2024-02-04T07:45:58;23.10;;;17.00;;
16354;SDS011;8287;51.644;8.494;2024-02-04T07:48:24;27.33;;;17.55;;
16354;SDS011;8287;51.644;8.494;2024-02-04T07:50:53;24.30;;;16.30;;
16354;SDS011;8287;51.644;8.494;2024-02-04T07:53:19;26.08;;;18.88;;
16354;SDS011;8287;51.644;8.494;2024-02-04T07:55:47;22.70;;;16.38;;
16354;SDS011;8287;51.644;8.494;2024-02-04T07:58:15;20.00;;;16.08;;
16354;SDS011;8287;51.644;8.494;2024-02-04T08:00:41;20.10;;;15.55;;
16354;SDS011;8287;51.644;8.494;2024-02-04T08:03:08;20.10;;;14.95;;
16354;SDS011;8287;51.644;8.494;2024-02-04T08:05:34;17.02;;;14.02;;
16354;SDS011;8287;51.644;8.494;2024-02-04T08:08:03;15.20;;;12.15;;
16354;SDS011;8287;51.644;8.494;2024-02-04T08:10:30;14.95;;;11.90;;
16354;SDS011;8287;51.644;8.494;2024-02-04T08:12:57;16.55;;;12.27;;
16354;SDS011;8287;51.644;8.494;2024-02-04T08:15:23;16.75;;;11.70;;
16354;SDS011;8287;51.644;8.494;2024-02-04T08:17:50;21.27;;;13.32;;
16354;SDS011;8287;51.644;8.494;2024-02-04T08:20:17;20.08;;;14.45;;
16354;SDS011;8287;51.644;8.494;2024-02-04T08:22:44;14.18;;;12.70;;
16354;SDS011;8287;51.644;8.494;2024-02-04T08:25:12;24.42;;;15.50;;
16354;SDS011;8287;51.644;8.494;2024-02-04T08:27:39;15.02;;;11.80;;
16354;SDS011;8287;51.644;8.494;2024-02-04T08:30:06;13.55;;;10.05;;
16354;SDS011;8287;51.644;8.494;2024-02-04T08:32:35;16.00;;;12.18;;
16354;SDS011;8287;51.644;8.494;2024-02-04T08:35:01;17.23;;;11.10;;
16354;SDS011;8287;51.644;8.494;2024-02-04T08:37:28;14.35;;;11.15;;
16354;SDS011;8287;51.644;8.494;2024-02-04T08:39:54;16.15;;;11.77;;
16354;SDS011;8287;51.644;8.494;2024-02-04T08:42:22;15.40;;;12.90;;
16354;SDS011;8287;51.644;8.494;2024-02-04T08:44:49;15.52;;;11.45;;
16354;SDS011;8287;51.644;8.494;2024-02-04T08:47:15;17.30;;;13.57;;
16354;SDS011;8287;51.644;8.494;2024-02-04T08:49:43;18.70;;;13.20;;
16354;SDS011;8287;51.644;8.494;2024-02-04T08:52:10;18.83;;;13.48;;
16354;SDS011;8287;51.644;8.494;2024-02-04T08:54:36;17.70;;;13.65;;
16354;SDS011;8287;51.644;8.494;2024-02-04T08:57:03;18.17;;;15.13;;
16354;SDS011;8287;51.644;8.494;2024-02-04T08:59:31;15.75;;;12.35;;
16354;SDS011;8287;51.644;8.494;2024-02-04T09:01:58;18.30;;;12.13;;
16354;SDS011;8287;51.644;8.494;2024-02-04T09:04:24;14.75;;;12.77;;
16354;SDS011;8287;51.644;8.494;2024-02-04T09:06:51;19.05;;;12.15;;
16354;SDS011;8287;51.644;8.494;2024-02-04T09:09:17;16.40;;;12.88;;
16354;SDS011;8287;51.644;8.494;2024-02-04T09:11:44;9.48;;;8.07;;
16354;SDS011;8287;51.644;8.494;2024-02-04T09:14:10;7.25;;;5.93;;
16354;SDS011;8287;51.644;8.494;2024-02-04T09:16:38;11.30;;;6.63;;
16354;SDS011;8287;51.644;8.494;2024-02-04T09:19:05;12.73;;;6.10;;
16354;SDS011;8287;51.644;8.494;2024-02-04T09:21:32;9.50;;;5.70;;
16354;SDS011;8287;51.644;8.494;2024-02-04T09:23:58;8.90;;;5.78;;
16354;SDS011;8287;51.644;8.494;2024-02-04T09:26:25;8.13;;;4.88;;
16354;SDS011;8287;51.644;8.494;2024-02-04T09:28:51;11.55;;;5.15;;
16354;SDS011;8287;51.644;8.494;2024-02-04T09:31:18;9.95;;;5.38;;
16354;SDS011;8287;51.644;8.494;2024-02-04T09:33:46;7.60;;;5.70;;
16354;SDS011;8287;51.644;8.494;2024-02-04T09:36:13;9.25;;;4.65;;
16354;SDS011;8287;51.644;8.494;2024-02-04T09:38:39;7.07;;;4.88;;
16354;SDS011;8287;51.644;8.494;2024-02-04T09:41:06;6.57;;;4.97;;
16354;SDS011;8287;51.644;8.494;2024-02-04T09:43:33;6.32;;;4.05;;
16354;SDS011;8287;51.644;8.494;2024-02-04T09:46:01;7.40;;;4.47;;
16354;SDS011;8287;51.644;8.494;2024-02-04T09:48:29;5.63;;;4.05;;
16354;SDS011;8287;51.644;8.494;2024-02-04T09:50:59;7.95;;;4.10;;
16354;SDS011;8287;51.644;8.494;2024-02-04T09:53:27;4.82;;;3.42;;
16354;SDS011;8287;51.644;8.494;2024-02-04T09:55:58;8.48;;;4.13;;
16354;SDS011;8287;51.644;8.494;2024-02-04T09:58:27;5.68;;;3.60;;
16354;SDS011;8287;51.644;8.494;2024-02-04T10:00:54;4.78;;;3.13;;
16354;SDS011;8287;51.644;8.494;2024-02-04T10:03:21;8.05;;;4.10;;
16354;SDS011;8287;51.644;8.494;2024-02-04T10:05:47;4.68;;;3.67;;
16354;SDS011;8287;51.644;8.494;2024-02-04T10:08:15;5.90;;;3.70;;
16354;SDS011;8287;51.644;8.494;2024-02-04T10:10:42;6.07;;;4.90;;
16354;SDS011;8287;51.644;8.494;2024-02-04T10:13:09;6.40;;;4.05;;
16354;SDS011;8287;51.644;8.494;2024-02-04T10:15:35;8.02;;;4.65;;
16354;SDS011;8287;51.644;8.494;2024-02-04T10:18:02;4.72;;;3.90;;
16354;SDS011;8287;51.644;8.494;2024-02-04T10:20:30;5.57;;;4.05;;
16354;SDS011;8287;51.644;8.494;2024-02-04T10:22:57;7.93;;;4.72;;
16354;SDS011;8287;51.644;8.494;2024-02-04T10:25:25;4.65;;;4.07;;
16354;SDS011;8287;51.644;8.494;2024-02-04T10:27:52;5.43;;;4.53;;
16354;SDS011;8287;51.644;8.494;2024-02-04T10:30:19;9.13;;;5.03;;
16354;SDS011;8287;51.644;8.494;2024-02-04T10:32:47;6.45;;;5.53;;
16354;SDS011;8287;51.644;8.494;2024-02-04T10:35:13;8.15;;;5.65;;
16354;SDS011;8287;51.644;8.494;2024-02-04T10:37:40;7.50;;;5.95;;
16354;SDS011;8287;51.644;8.494;2024-02-04T10:40:07;7.28;;;6.20;;
16354;SDS011;8287;51.644;8.494;2024-02-04T10:42:35;9.40;;;6.70;;
16354;SDS011;8287;51.644;8.494;2024-02-04T10:45:07;7.65;;;6.50;;
16354;SDS011;8287;51.644;8.494;2024-02-04T10:47:35;6.63;;;5.32;;
16354;SDS011;8287;51.644;8.494;2024-02-04T10:50:04;6.72;;;4.68;;
16354;SDS011;8287;51.644;8.494;2024-02-04T10:52:32;6.65;;;4.47;;
16354;SDS011;8287;51.644;8.494;2024-02-04T10:55:03;5.20;;;4.70;;
16354;SDS011;8287;51.644;8.494;2024-02-04T10:57:33;5.18;;;4.40;;
16354;SDS011;8287;51.644;8.494;2024-02-04T11:00:03;7.65;;;3.72;;
16354;SDS011;8287;51.644;8.494;2024-02-04T11:02:34;8.27;;;4.72;;
16354;SDS011;8287;51.644;8.494;2024-02-04T11:05:02;4.82;;;3.90;;
16354;SDS011;8287;51.644;8.494;2024-02-04T11:07:29;6.97;;;4.53;;
16354;SDS011;8287;51.644;8.494;2024-02-04T11:09:58;5.18;;;4.22;;
16354;SDS011;8287;51.644;8.494;2024-02-04T11:12:25;6.65;;;4.63;;
16354;SDS011;8287;51.644;8.494;2024-02-04T11:14:54;7.40;;;4.63;;
16354;SDS011;8287;51.644;8.494;2024-02-04T11:20:31;4.93;;;3.58;;
16354;SDS011;8287;51.644;8.494;2024-02-04T11:23:17;7.72;;;4.63;;
16354;SDS011;8287;51.644;8.494;2024-02-04T11:25:54;9.40;;;4.93;;
16354;SDS011;8287;51.644;8.494;2024-02-04T11:28:22;8.27;;;6.25;;
16354;SDS011;8287;51.644;8.494;2024-02-04T11:30:52;8.18;;;5.03;;
16354;SDS011;8287;51.644;8.494;2024-02-04T11:33:19;3.80;;;3.40;;
16354;SDS011;8287;51.644;8.494;2024-02-04T11:35:46;4.53;;;4.10;;
16354;SDS011;8287;51.644;8.494;2024-02-04T11:38:17;5.75;;;4.20;;
16354;SDS011;8287;51.644;8.494;2024-02-04T11:40:45;4.85;;;4.30;;
16354;SDS011;8287;51.644;8.494;2024-02-04T11:43:13;10.57;;;5.03;;
16354;SDS011;8287;51.644;8.494;2024-02-04T11:45:41;4.38;;;3.83;;
16354;SDS011;8287;51.644;8.494;2024-02-04T11:48:10;6.78;;;3.47;;
16354;SDS011;8287;51.644;8.494;2024-02-04T11:50:37;5.60;;;3.95;;
16354;SDS011;8287;51.644;8.494;2024-02-04T11:53:05;5.68;;;4.47;;
16354;SDS011;8287;51.644;8.494;2024-02-04T11:55:33;6.93;;;5.45;;
16354;SDS011;8287;51.644;8.494;2024-02-04T11:58:01;6.03;;;5.45;;
16354;SDS011;8287;51.644;8.494;2024-02-04T12:00:28;8.25;;;6.25;;
16354;SDS011;8287;51.644;8.494;2024-02-04T12:03:01;6.80;;;5.75;;
16354;SDS011;8287;51.644;8.494;2024-02-04T12:05:30;6.18;;;5.57;;
16354;SDS011;8287;51.644;8.494;2024-02-04T12:07:58;5.88;;;5.30;;
16354;SDS011;8287;51.644;8.494;2024-02-04T12:10:26;6.95;;;6.25;;
16354;SDS011;8287;51.644;8.494;2024-02-04T12:12:54;6.05;;;5.28;;
16354;SDS011;8287;51.644;8.494;2024-02-04T12:15:21;5.88;;;5.10;;
16354;SDS011;8287;51.644;8.494;2024-02-04T12:17:48;5.40;;;4.93;;
16354;SDS011;8287;51.644;8.494;2024-02-04T12:20:14;5.50;;;5.00;;
16354;SDS011;8287;51.644;8.494;2024-02-04T12:22:42;6.30;;;5.70;;
16354;SDS011;8287;51.644;8.494;2024-02-04T12:25:09;6.20;;;5.35;;
16354;SDS011;8287;51.644;8.494;2024-02-04T12:27:37;7.38;;;5.72;;
16354;SDS011;8287;51.644;8.494;2024-02-04T12:30:04;6.95;;;6.25;;
16354;SDS011;8287;51.644;8.494;2024-02-04T12:32:32;6.70;;;5.97;;
16354;SDS011;8287;51.644;8.494;2024-02-04T12:34:58;5.82;;;4.95;;
16354;SDS011;8287;51.644;8.494;2024-02-04T12:37:25;7.15;;;4.97;;
16354;SDS011;8287;51.644;8.494;2024-02-04T12:39:54;5.97;;;5.32;;
16354;SDS011;8287;51.644;8.494;2024-02-04T12:42:20;6.85;;;4.88;;
16354;SDS011;8287;51.644;8.494;2024-02-04T12:44:47;9.55;;;5.00;;
16354;SDS011;8287;51.644;8.494;2024-02-04T12:47:14;6.95;;;5.10;;
16354;SDS011;8287;51.644;8.494;2024-02-04T12:49:45;5.05;;;4.55;;
16354;SDS011;8287;51.644;8.494;2024-02-04T12:52:11;6.65;;;4.65;;
16354;SDS011;8287;51.644;8.494;2024-02-04T12:54:41;6.25;;;5.22;;
16354;SDS011;8287;51.644;8.494;2024-02-04T12:57:10;6.30;;;5.65;;
16354;SDS011;8287;51.644;8.494;2024-02-04T12:59:47;8.38;;;6.28;;
16354;SDS011;8287;51.644;8.494;2024-02-04T13:02:13;6.13;;;5.53;;
16354;SDS011;8287;51.644;8.494;2024-02-04T13:04:40;5.40;;;4.90;;
16354;SDS011;8287;51.644;8.494;2024-02-04T13:07:08;6.18;;;5.20;;
16354;SDS011;8287;51.644;8.494;2024-02-04T13:09:36;6.93;;;5.45;;
16354;SDS011;8287;51.644;8.494;2024-02-04T13:12:03;9.15;;;6.57;;
16354;SDS011;8287;51.644;8.494;2024-02-04T13:14:32;9.50;;;7.60;;
16354;SDS011;8287;51.644;8.494;2024-02-04T13:16:58;5.43;;;4.93;;
16354;SDS011;8287;51.644;8.494;2024-02-04T13:19:25;6.35;;;4.75;;
16354;SDS011;8287;51.644;8.494;2024-02-04T13:21:57;7.55;;;5.13;;
16354;SDS011;8287;51.644;8.494;2024-02-04T13:24:24;7.38;;;5.63;;
16354;SDS011;8287;51.644;8.494;2024-02-04T13:26:50;11.13;;;6.70;;
16354;SDS011;8287;51.644;8.494;2024-02-04T13:29:17;6.93;;;5.70;;
16354;SDS011;8287;51.644;8.494;2024-02-04T13:31:45;6.57;;;5.63;;
16354;SDS011;8287;51.644;8.494;2024-02-04T13:34:11;7.65;;;5.75;;
16354;SDS011;8287;51.644;8.494;2024-02-04T13:36:38;6.72;;;6.13;;
16354;SDS011;8287;51.644;8.494;2024-02-04T13:39:04;5.68;;;4.93;;
16354;SDS011;8287;51.644;8.494;2024-02-04T13:41:31;6.07;;;5.45;;
16354;SDS011;8287;51.644;8.494;2024-02-04T13:43:58;6.13;;;5.55;;
16354;SDS011;8287;51.644;8.494;2024-02-04T13:46:24;6.78;;;6.03;;
16354;SDS011;8287;51.644;8.494;2024-02-04T13:48:52;7.38;;;5.88;;
16354;SDS011;8287;51.644;8.494;2024-02-04T13:51:21;8.65;;;6.13;;
16354;SDS011;8287;51.644;8.494;2024-02-04T13:53:48;6.43;;;5.53;;
16354;SDS011;8287;51.644;8.494;2024-02-04T13:56:14;8.80;;;6.55;;
16354;SDS011;8287;51.644;8.494;2024-02-04T13:58:43;9.50;;;6.28;;
16354;SDS011;8287;51.644;8.494;2024-02-04T14:01:10;7.07;;;6.38;;
16354;SDS011;8287;51.644;8.494;2024-02-04T14:03:38;6.88;;;6.18;;
16354;SDS011;8287;51.644;8.494;2024-02-04T14:06:06;6.97;;;4.78;;
16354;SDS011;8287;51.644;8.494;2024-02-04T14:08:32;5.47;;;4.97;;
16354;SDS011;8287;51.644;8.494;2024-02-04T14:11:01;5.50;;;4.97;;
16354;SDS011;8287;51.644;8.494;2024-02-04T14:13:30;4.50;;;4.10;;
16354;SDS011;8287;51.644;8.494;2024-02-04T14:15:58;8.90;;;5.53;;
16354;SDS011;8287;51.644;8.494;2024-02-04T14:18:24;5.28;;;4.30;;
16354;SDS011;8287;51.644;8.494;2024-02-04T14:20:51;3.97;;;3.67;;
16354;SDS011;8287;51.644;8.494;2024-02-04T14:23:19;6.22;;;4.43;;
16354;SDS011;8287;51.644;8.494;2024-02-04T14:25:45;5.47;;;3.95;;
16354;SDS011;8287;51.644;8.494;2024-02-04T14:28:12;4.82;;;4.32;;
16354;SDS011;8287;51.644;8.494;2024-02-04T14:30:38;5.07;;;4.57;;
16354;SDS011;8287;51.644;8.494;2024-02-04T14:33:08;5.80;;;4.95;;
16354;SDS011;8287;51.644;8.494;2024-02-04T14:35:35;5.30;;;4.80;;
16354;SDS011;8287;51.644;8.494;2024-02-04T14:38:02;6.07;;;5.47;;
16354;SDS011;8287;51.644;8.494;2024-02-04T14:40:30;5.88;;;4.72;;
16354;SDS011;8287;51.644;8.494;2024-02-04T14:42:59;5.63;;;5.00;;
16354;SDS011;8287;51.644;8.494;2024-02-04T14:45:27;5.00;;;4.60;;
16354;SDS011;8287;51.644;8.494;2024-02-04T14:47:54;4.80;;;4.32;;
16354;SDS011;8287;51.644;8.494;2024-02-04T14:50:20;6.10;;;5.50;;
16354;SDS011;8287;51.644;8.494;2024-02-04T14:52:47;5.38;;;4.88;;
16354;SDS011;8287;51.644;8.494;2024-02-04T14:55:13;6.63;;;5.07;;